createdAt,value
2022-07-28T00:04:39.584Z,15.50
2022-07-28T00:09:50.137Z,15.50
2022-07-28T00:14:58.574Z,15.40
2022-07-28T00:20:08.576Z,15.50
2022-07-28T00:25:17.503Z,15.30
2022-07-28T00:30:25.988Z,15.30
2022-07-28T00:35:34.522Z,15.60
2022-07-28T00:40:59.672Z,15.40
2022-07-28T00:46:11.010Z,15.40
2022-07-28T00:51:21.611Z,15.30
2022-07-28T00:56:30.138Z,15.40
2022-07-28T01:01:38.697Z,15.30
2022-07-28T01:07:11.535Z,15.40
2022-07-28T01:13:01.367Z,15.40
2022-07-28T01:18:14.321Z,15.30
2022-07-28T01:24:16.757Z,15.30
2022-07-28T01:30:05.302Z,15.20
2022-07-28T01:35:24.868Z,15.20
2022-07-28T01:40:39.545Z,15.10
2022-07-28T01:45:49.827Z,15.10
2022-07-28T01:51:00.191Z,15.10
2022-07-28T01:56:12.991Z,15.00
2022-07-28T02:01:28.096Z,15.10
2022-07-28T02:06:44.843Z,14.90
2022-07-28T02:11:57.059Z,14.80
2022-07-28T02:17:14.723Z,14.90
2022-07-28T02:22:24.243Z,15.20
2022-07-28T02:27:57.185Z,15.30
2022-07-28T02:33:12.478Z,15.40
2022-07-28T02:38:34.290Z,15.50
2022-07-28T02:43:50.013Z,15.50
2022-07-28T02:48:58.932Z,15.40
2022-07-28T02:54:09.110Z,15.60
2022-07-28T02:59:19.780Z,15.40
2022-07-28T03:04:45.082Z,15.40
2022-07-28T03:09:52.634Z,15.50
2022-07-28T03:15:00.344Z,15.40
2022-07-28T03:20:08.793Z,15.50
2022-07-28T03:25:45.727Z,15.30
2022-07-28T03:31:06.757Z,15.50
2022-07-28T03:36:18.074Z,15.50
2022-07-28T03:41:27.673Z,15.40
2022-07-28T03:46:37.309Z,15.20
2022-07-28T03:51:44.578Z,15.20
2022-07-28T03:56:51.362Z,15.40
2022-07-28T04:02:00.529Z,15.50
2022-07-28T04:07:07.362Z,15.50
2022-07-28T04:12:14.968Z,15.50
2022-07-28T04:17:26.073Z,15.40
2022-07-28T04:22:32.525Z,15.50
2022-07-28T04:27:41.772Z,15.50
2022-07-28T04:32:53.244Z,15.60
2022-07-28T04:38:00.648Z,15.70
2022-07-28T04:43:11.743Z,15.70
2022-07-28T04:48:20.643Z,15.90
2022-07-28T04:53:29.910Z,16.00
2022-07-28T04:58:36.718Z,16.00
2022-07-28T05:03:44.738Z,15.90
2022-07-28T05:08:51.779Z,16.00
2022-07-28T05:13:59.384Z,16.10
2022-07-28T05:19:07.431Z,16.10
2022-07-28T05:24:15.472Z,16.10
2022-07-28T05:29:24.004Z,16.20
2022-07-28T05:34:32.125Z,16.20
2022-07-28T05:39:40.510Z,16.20
2022-07-28T05:44:49.219Z,16.10
2022-07-28T05:49:58.413Z,16.30
2022-07-28T05:55:05.631Z,16.10
2022-07-28T06:00:17.806Z,16.30
2022-07-28T06:05:26.875Z,16.20
2022-07-28T06:10:38.937Z,16.20
2022-07-28T06:15:48.222Z,16.10
2022-07-28T06:20:55.880Z,16.40
2022-07-28T06:26:02.833Z,16.70
2022-07-28T06:31:09.979Z,16.90
2022-07-28T06:36:16.900Z,16.90
2022-07-28T06:41:23.674Z,17.10
2022-07-28T06:46:30.581Z,17.30
2022-07-28T06:51:38.804Z,17.50
2022-07-28T06:56:45.595Z,17.70
2022-07-28T07:01:54.070Z,17.80
2022-07-28T07:07:04.056Z,17.60
2022-07-28T07:12:12.391Z,17.40
2022-07-28T07:17:21.244Z,17.20
2022-07-28T07:22:28.839Z,17.70
2022-07-28T07:27:35.595Z,18.10
2022-07-28T07:32:50.495Z,18.70
2022-07-28T07:37:58.106Z,18.40
2022-07-28T07:43:05.831Z,18.70
2022-07-28T07:48:13.791Z,18.70
2022-07-28T07:53:21.363Z,18.60
2022-07-28T07:58:30.703Z,18.40
2022-07-28T08:03:37.472Z,18.50
2022-07-28T08:08:48.409Z,18.60
2022-07-28T08:13:53.658Z,18.90
2022-07-28T08:19:00.754Z,19.20
2022-07-28T08:24:09.916Z,19.30
2022-07-28T08:29:18.088Z,19.40
2022-07-28T08:34:33.061Z,19.90
2022-07-28T08:39:38.263Z,20.40
2022-07-28T08:44:49.728Z,20.30
2022-07-28T08:50:00.069Z,20.30
2022-07-28T08:55:09.630Z,21.30
2022-07-28T09:00:17.591Z,21.90
2022-07-28T09:05:26.862Z,21.70
2022-07-28T09:10:36.308Z,22.20
2022-07-28T09:15:45.673Z,21.70
2022-07-28T09:20:52.428Z,21.20
2022-07-28T09:26:12.987Z,21.80
2022-07-28T09:31:23.440Z,22.20
2022-07-28T09:36:40.466Z,21.70
2022-07-28T09:41:56.774Z,21.50
2022-07-28T09:47:12.691Z,21.70
2022-07-28T09:52:38.274Z,21.50
2022-07-28T09:57:46.000Z,21.20
2022-07-28T10:02:54.138Z,21.00
2022-07-28T10:08:01.943Z,21.60
2022-07-28T10:13:09.142Z,21.50
2022-07-28T10:18:17.017Z,21.00
2022-07-28T10:23:26.762Z,21.40
2022-07-28T10:28:40.556Z,22.20
2022-07-28T10:33:49.179Z,21.80
2022-07-28T10:39:00.470Z,22.00
2022-07-28T10:44:14.500Z,23.50
2022-07-28T10:49:27.648Z,23.90
2022-07-28T10:54:36.602Z,24.00
2022-07-28T11:00:12.833Z,23.20
2022-07-28T11:05:35.811Z,23.50
2022-07-28T11:10:56.242Z,23.40
2022-07-28T11:16:22.113Z,23.30
2022-07-28T11:21:39.659Z,24.50
2022-07-28T11:26:42.355Z,23.10
2022-07-28T11:31:53.698Z,23.60
2022-07-28T11:37:14.989Z,23.60
2022-07-28T11:42:37.016Z,23.00
2022-07-28T11:47:45.742Z,23.40
2022-07-28T11:53:00.098Z,23.00
2022-07-28T11:58:08.582Z,23.40
2022-07-28T12:03:49.019Z,24.40
2022-07-28T12:09:03.115Z,25.00
2022-07-28T12:14:18.080Z,24.90
2022-07-28T12:19:32.895Z,24.50
2022-07-28T12:24:45.840Z,24.00
2022-07-28T12:29:49.484Z,25.30
2022-07-28T12:34:56.467Z,24.80
2022-07-28T12:40:03.872Z,25.10
2022-07-28T12:45:13.329Z,25.60
2022-07-28T12:50:22.991Z,25.90
2022-07-28T12:55:33.260Z,25.80
2022-07-28T13:00:41.575Z,25.40
2022-07-28T13:06:05.439Z,25.70
2022-07-28T13:16:30.315Z,26.30
2022-07-28T13:21:57.155Z,25.40
2022-07-28T13:26:55.942Z,25.40
2022-07-28T13:32:03.006Z,25.80
2022-07-28T13:37:12.178Z,26.10
2022-07-28T13:42:20.497Z,26.20
2022-07-28T13:47:35.456Z,26.30
2022-07-28T13:52:38.496Z,25.70
2022-07-28T13:57:46.034Z,25.20
2022-07-28T14:02:55.691Z,25.30
2022-07-28T14:08:04.955Z,26.30
2022-07-28T14:13:11.670Z,26.40
2022-07-28T14:18:19.515Z,26.60
2022-07-28T14:23:28.988Z,26.10
2022-07-28T14:28:37.462Z,26.30
2022-07-28T14:33:48.379Z,25.70
2022-07-28T14:38:54.749Z,25.50
2022-07-28T14:44:03.334Z,25.90
2022-07-28T14:49:10.180Z,25.60
2022-07-28T14:54:19.426Z,25.40
2022-07-28T14:59:27.939Z,25.90
2022-07-28T15:04:36.669Z,25.50
2022-07-28T15:09:48.768Z,25.50
2022-07-28T15:14:55.044Z,25.80
2022-07-28T15:20:03.645Z,25.60
2022-07-28T15:25:13.217Z,25.40
2022-07-28T15:30:20.013Z,25.20
2022-07-28T15:35:29.436Z,25.30
2022-07-28T15:40:37.862Z,25.10
2022-07-28T15:45:45.207Z,24.70
2022-07-28T15:50:54.482Z,24.50
2022-07-28T15:56:01.466Z,24.30
2022-07-28T16:01:09.987Z,24.50
2022-07-28T16:06:19.581Z,24.40
2022-07-28T16:11:28.061Z,24.50
2022-07-28T16:16:36.395Z,24.70
2022-07-28T16:21:43.509Z,24.60
2022-07-28T16:26:52.711Z,24.40
2022-07-28T16:31:59.428Z,24.50
2022-07-28T16:37:07.237Z,24.30
2022-07-28T16:42:16.006Z,24.30
2022-07-28T16:47:23.155Z,24.20
2022-07-28T16:52:30.743Z,24.20
2022-07-28T16:57:39.001Z,24.30
2022-07-28T17:02:46.388Z,24.20
2022-07-28T17:07:54.081Z,24.20
2022-07-28T17:13:02.227Z,24.20
2022-07-28T17:18:09.369Z,24.00
2022-07-28T17:23:18.155Z,23.90
2022-07-28T17:28:26.332Z,23.80
2022-07-28T17:33:34.339Z,23.60
2022-07-28T17:38:41.045Z,23.40
2022-07-28T17:43:48.325Z,23.20
2022-07-28T17:48:56.133Z,22.70
2022-07-28T17:54:03.825Z,22.40
2022-07-28T17:59:12.029Z,22.20
2022-07-28T18:04:19.435Z,22.00
2022-07-28T18:09:28.405Z,21.90
2022-07-28T18:14:36.230Z,21.70
2022-07-28T18:19:45.502Z,21.60
2022-07-28T18:24:51.599Z,21.70
2022-07-28T18:29:59.461Z,21.60
2022-07-28T18:35:06.332Z,21.50
2022-07-28T18:40:19.349Z,21.50
2022-07-28T18:45:26.881Z,21.20
2022-07-28T18:50:35.617Z,21.00
2022-07-28T18:55:44.669Z,21.20
2022-07-28T19:00:52.498Z,21.10
2022-07-28T19:06:00.120Z,21.20
2022-07-28T19:11:08.207Z,21.10
2022-07-28T19:16:15.329Z,21.20
2022-07-28T19:21:22.951Z,21.20
2022-07-28T19:26:30.622Z,20.90
2022-07-28T19:31:37.993Z,20.80
2022-07-28T19:36:47.142Z,20.80
2022-07-28T19:41:54.464Z,20.80
2022-07-28T19:47:02.173Z,20.60
2022-07-28T19:52:10.258Z,20.50
2022-07-28T19:57:22.654Z,20.40
2022-07-28T20:02:32.799Z,20.40
2022-07-28T20:07:40.663Z,20.40
2022-07-28T20:12:47.836Z,20.10
2022-07-28T20:17:55.614Z,20.20
2022-07-28T20:23:03.372Z,20.20
2022-07-28T20:28:12.971Z,20.30
2022-07-28T20:33:20.791Z,20.10
2022-07-28T20:38:31.689Z,20.10
2022-07-28T20:43:41.391Z,20.20
2022-07-28T20:48:48.275Z,20.10
2022-07-28T20:53:56.158Z,20.10
2022-07-28T20:59:07.101Z,19.90
2022-07-28T21:04:15.432Z,19.90
2022-07-28T21:09:26.831Z,19.90
2022-07-28T21:14:38.601Z,19.80
2022-07-28T21:19:45.602Z,19.80
2022-07-28T21:24:55.781Z,19.80
2022-07-28T21:30:03.423Z,19.70
2022-07-28T21:35:14.227Z,19.80
2022-07-28T21:40:18.939Z,19.70
2022-07-28T21:45:28.092Z,19.70
2022-07-28T21:50:40.256Z,19.80
2022-07-28T21:55:50.459Z,19.90
2022-07-28T22:01:02.472Z,19.90
2022-07-28T22:06:08.956Z,19.80
2022-07-28T22:11:16.536Z,19.90
2022-07-28T22:16:23.495Z,19.90
2022-07-28T22:21:30.587Z,19.90
2022-07-28T22:26:37.845Z,20.00
2022-07-28T22:31:47.609Z,19.90
2022-07-28T22:36:55.841Z,19.80
2022-07-28T22:42:03.351Z,19.60
2022-07-28T22:47:11.375Z,19.70
2022-07-28T22:52:21.782Z,19.80
2022-07-28T22:57:33.258Z,19.80
2022-07-28T23:02:41.421Z,19.80
2022-07-28T23:07:53.372Z,19.70
2022-07-28T23:12:58.967Z,19.70
2022-07-28T23:18:07.751Z,19.70
2022-07-28T23:23:18.748Z,19.60
2022-07-28T23:28:29.180Z,19.60
2022-07-28T23:33:54.565Z,19.60
2022-07-28T23:38:50.253Z,19.70
2022-07-28T23:43:59.521Z,19.80
2022-07-28T23:49:06.432Z,19.70
2022-07-28T23:54:15.988Z,19.60
2022-07-28T23:59:24.554Z,19.60
